sensor_id;sensor_type;location;lat;lon;timestamp;P1;durP1;ratioP1;P2;durP2;ratioP2
22113;SDS011;11223;49.968;9.062;2022-09-30T00:01:22;4.20;;;3.80;;
22113;SDS011;11223;49.968;9.062;2022-09-30T00:03:54;4.28;;;3.50;;
22113;SDS011;11223;49.968;9.062;2022-09-30T00:06:21;6.13;;;3.65;;
22113;SDS011;11223;49.968;9.062;2022-09-30T00:08:48;6.53;;;4.20;;
22113;SDS011;11223;49.968;9.062;2022-09-30T00:11:15;5.45;;;4.32;;
22113;SDS011;11223;49.968;9.062;2022-09-30T00:13:44;7.70;;;4.70;;
22113;SDS011;11223;49.968;9.062;2022-09-30T00:16:12;4.70;;;4.30;;
22113;SDS011;11223;49.968;9.062;2022-09-30T00:18:39;7.90;;;4.40;;
22113;SDS011;11223;49.968;9.062;2022-09-30T00:21:06;4.40;;;3.83;;
22113;SDS011;11223;49.968;9.062;2022-09-30T00:23:33;3.13;;;2.92;;
22113;SDS011;11223;49.968;9.062;2022-09-30T00:26:01;8.23;;;3.35;;
22113;SDS011;11223;49.968;9.062;2022-09-30T00:28:29;4.00;;;3.60;;
22113;SDS011;11223;49.968;9.062;2022-09-30T00:30:58;7.35;;;3.30;;
22113;SDS011;11223;49.968;9.062;2022-09-30T00:33:25;5.18;;;4.53;;
22113;SDS011;11223;49.968;9.062;2022-09-30T00:35:51;4.17;;;2.53;;
22113;SDS011;11223;49.968;9.062;2022-09-30T00:38:16;2.97;;;2.70;;
22113;SDS011;11223;49.968;9.062;2022-09-30T00:40:42;3.17;;;2.97;;
22113;SDS011;11223;49.968;9.062;2022-09-30T00:43:15;3.63;;;2.97;;
22113;SDS011;11223;49.968;9.062;2022-09-30T00:45:48;6.82;;;3.75;;
22113;SDS011;11223;49.968;9.062;2022-09-30T00:48:19;3.40;;;3.10;;
22113;SDS011;11223;49.968;9.062;2022-09-30T00:50:48;4.35;;;3.10;;
22113;SDS011;11223;49.968;9.062;2022-09-30T00:53:21;2.60;;;2.40;;
22113;SDS011;11223;49.968;9.062;2022-09-30T00:58:55;2.92;;;2.58;;
22113;SDS011;11223;49.968;9.062;2022-09-30T01:01:27;3.50;;;2.65;;
22113;SDS011;11223;49.968;9.062;2022-09-30T01:04:16;2.90;;;2.70;;
22113;SDS011;11223;49.968;9.062;2022-09-30T01:06:41;3.00;;;2.78;;
22113;SDS011;11223;49.968;9.062;2022-09-30T01:09:08;3.60;;;3.30;;
22113;SDS011;11223;49.968;9.062;2022-09-30T01:11:34;3.45;;;3.10;;
22113;SDS011;11223;49.968;9.062;2022-09-30T01:14:04;6.30;;;3.87;;
22113;SDS011;11223;49.968;9.062;2022-09-30T01:16:54;6.18;;;4.35;;
22113;SDS011;11223;49.968;9.062;2022-09-30T01:24:38;7.13;;;4.78;;
22113;SDS011;11223;49.968;9.062;2022-09-30T01:30:18;6.70;;;5.03;;
22113;SDS011;11223;49.968;9.062;2022-09-30T01:38:46;6.50;;;4.55;;
22113;SDS011;11223;49.968;9.062;2022-09-30T01:41:02;8.65;;;5.20;;
22113;SDS011;11223;49.968;9.062;2022-09-30T01:51:52;4.93;;;4.45;;
22113;SDS011;11223;49.968;9.062;2022-09-30T01:54:36;6.75;;;5.63;;
22113;SDS011;11223;49.968;9.062;2022-09-30T01:57:11;6.47;;;5.03;;
22113;SDS011;11223;49.968;9.062;2022-09-30T01:59:53;6.88;;;4.80;;
22113;SDS011;11223;49.968;9.062;2022-09-30T02:02:26;9.43;;;4.80;;
22113;SDS011;11223;49.968;9.062;2022-09-30T02:07:41;6.72;;;4.82;;
22113;SDS011;11223;49.968;9.062;2022-09-30T02:10:37;5.90;;;4.43;;
22113;SDS011;11223;49.968;9.062;2022-09-30T02:13:16;7.85;;;4.70;;
22113;SDS011;11223;49.968;9.062;2022-09-30T02:15:47;6.70;;;5.32;;
22113;SDS011;11223;49.968;9.062;2022-09-30T02:18:22;8.02;;;5.68;;
22113;SDS011;11223;49.968;9.062;2022-09-30T02:20:54;6.00;;;5.18;;
22113;SDS011;11223;49.968;9.062;2022-09-30T02:23:26;5.45;;;4.60;;
22113;SDS011;11223;49.968;9.062;2022-09-30T02:29:03;6.15;;;5.22;;
22113;SDS011;11223;49.968;9.062;2022-09-30T02:31:33;6.63;;;4.97;;
22113;SDS011;11223;49.968;9.062;2022-09-30T02:34:15;10.07;;;5.80;;
22113;SDS011;11223;49.968;9.062;2022-09-30T02:39:59;6.05;;;5.18;;
22113;SDS011;11223;49.968;9.062;2022-09-30T02:42:47;7.80;;;5.20;;
22113;SDS011;11223;49.968;9.062;2022-09-30T02:45:15;6.27;;;5.40;;
22113;SDS011;11223;49.968;9.062;2022-09-30T02:53:26;6.30;;;4.90;;
22113;SDS011;11223;49.968;9.062;2022-09-30T02:56:22;11.50;;;6.28;;
22113;SDS011;11223;49.968;9.062;2022-09-30T02:58:58;6.55;;;4.80;;
22113;SDS011;11223;49.968;9.062;2022-09-30T03:01:24;7.60;;;5.03;;
22113;SDS011;11223;49.968;9.062;2022-09-30T03:03:54;8.33;;;4.80;;
22113;SDS011;11223;49.968;9.062;2022-09-30T03:06:24;6.28;;;4.90;;
22113;SDS011;11223;49.968;9.062;2022-09-30T03:08:51;6.13;;;3.97;;
22113;SDS011;11223;49.968;9.062;2022-09-30T03:11:18;9.15;;;4.38;;
22113;SDS011;11223;49.968;9.062;2022-09-30T03:24:34;6.40;;;4.70;;
22113;SDS011;11223;49.968;9.062;2022-09-30T03:40:29;6.47;;;4.28;;
22113;SDS011;11223;49.968;9.062;2022-09-30T03:43:28;4.78;;;4.13;;
22113;SDS011;11223;49.968;9.062;2022-09-30T03:45:57;6.65;;;4.50;;
22113;SDS011;11223;49.968;9.062;2022-09-30T03:48:30;6.00;;;4.40;;
22113;SDS011;11223;49.968;9.062;2022-09-30T03:50:58;5.60;;;4.78;;
22113;SDS011;11223;49.968;9.062;2022-09-30T03:53:24;5.25;;;4.28;;
22113;SDS011;11223;49.968;9.062;2022-09-30T03:55:52;5.72;;;5.15;;
22113;SDS011;11223;49.968;9.062;2022-09-30T03:58:19;9.35;;;5.43;;
22113;SDS011;11223;49.968;9.062;2022-09-30T04:00:50;7.18;;;5.30;;
22113;SDS011;11223;49.968;9.062;2022-09-30T04:03:17;6.88;;;4.65;;
22113;SDS011;11223;49.968;9.062;2022-09-30T04:05:45;8.32;;;4.60;;
22113;SDS011;11223;49.968;9.062;2022-09-30T04:08:11;5.53;;;4.20;;
22113;SDS011;11223;49.968;9.062;2022-09-30T04:10:38;11.20;;;5.50;;
22113;SDS011;11223;49.968;9.062;2022-09-30T04:13:05;8.93;;;4.43;;
22113;SDS011;11223;49.968;9.062;2022-09-30T04:15:30;5.90;;;4.67;;
22113;SDS011;11223;49.968;9.062;2022-09-30T04:17:57;6.13;;;4.60;;
22113;SDS011;11223;49.968;9.062;2022-09-30T04:20:23;5.40;;;4.65;;
22113;SDS011;11223;49.968;9.062;2022-09-30T04:22:49;6.63;;;5.70;;
22113;SDS011;11223;49.968;9.062;2022-09-30T04:25:14;3.40;;;2.90;;
22113;SDS011;11223;49.968;9.062;2022-09-30T04:27:40;4.80;;;4.20;;
22113;SDS011;11223;49.968;9.062;2022-09-30T04:30:06;7.73;;;3.93;;
22113;SDS011;11223;49.968;9.062;2022-09-30T04:32:32;4.30;;;3.90;;
22113;SDS011;11223;49.968;9.062;2022-09-30T04:34:57;6.30;;;4.27;;
22113;SDS011;11223;49.968;9.062;2022-09-30T04:37:23;7.40;;;5.00;;
22113;SDS011;11223;49.968;9.062;2022-09-30T04:39:48;6.10;;;4.40;;
22113;SDS011;11223;49.968;9.062;2022-09-30T04:42:14;4.77;;;3.53;;
22113;SDS011;11223;49.968;9.062;2022-09-30T04:44:41;5.65;;;4.50;;
22113;SDS011;11223;49.968;9.062;2022-09-30T04:47:06;5.80;;;4.50;;
22113;SDS011;11223;49.968;9.062;2022-09-30T04:49:32;6.97;;;5.00;;
22113;SDS011;11223;49.968;9.062;2022-09-30T04:51:57;7.83;;;5.00;;
22113;SDS011;11223;49.968;9.062;2022-09-30T04:54:23;5.30;;;4.80;;
22113;SDS011;11223;49.968;9.062;2022-09-30T04:56:49;6.60;;;4.80;;
22113;SDS011;11223;49.968;9.062;2022-09-30T04:59:14;6.30;;;3.80;;
22113;SDS011;11223;49.968;9.062;2022-09-30T05:01:40;8.03;;;5.23;;
22113;SDS011;11223;49.968;9.062;2022-09-30T05:04:07;6.72;;;4.30;;
22113;SDS011;11223;49.968;9.062;2022-09-30T05:06:33;5.85;;;4.93;;
22113;SDS011;11223;49.968;9.062;2022-09-30T05:08:59;9.63;;;4.17;;
22113;SDS011;11223;49.968;9.062;2022-09-30T05:11:24;8.13;;;4.40;;
22113;SDS011;11223;49.968;9.062;2022-09-30T05:13:50;6.70;;;4.13;;
22113;SDS011;11223;49.968;9.062;2022-09-30T05:16:16;6.00;;;4.70;;
22113;SDS011;11223;49.968;9.062;2022-09-30T05:18:42;4.47;;;4.07;;
22113;SDS011;11223;49.968;9.062;2022-09-30T05:21:10;7.80;;;4.68;;
22113;SDS011;11223;49.968;9.062;2022-09-30T05:23:40;7.75;;;4.35;;
22113;SDS011;11223;49.968;9.062;2022-09-30T05:26:06;9.67;;;4.93;;
22113;SDS011;11223;49.968;9.062;2022-09-30T05:28:32;7.60;;;4.53;;
22113;SDS011;11223;49.968;9.062;2022-09-30T05:30:59;6.90;;;5.20;;
22113;SDS011;11223;49.968;9.062;2022-09-30T05:33:27;15.20;;;5.05;;
22113;SDS011;11223;49.968;9.062;2022-09-30T05:35:59;6.80;;;4.70;;
22113;SDS011;11223;49.968;9.062;2022-09-30T05:38:32;11.27;;;5.45;;
22113;SDS011;11223;49.968;9.062;2022-09-30T05:41:04;6.18;;;4.93;;
22113;SDS011;11223;49.968;9.062;2022-09-30T05:43:31;6.45;;;4.20;;
22113;SDS011;11223;49.968;9.062;2022-09-30T05:45:57;7.40;;;5.13;;
22113;SDS011;11223;49.968;9.062;2022-09-30T05:48:23;7.50;;;4.70;;
22113;SDS011;11223;49.968;9.062;2022-09-30T05:50:52;5.65;;;4.20;;
22113;SDS011;11223;49.968;9.062;2022-09-30T05:53:19;5.38;;;4.15;;
22113;SDS011;11223;49.968;9.062;2022-09-30T05:55:45;6.03;;;5.07;;
22113;SDS011;11223;49.968;9.062;2022-09-30T05:58:12;6.07;;;4.70;;
22113;SDS011;11223;49.968;9.062;2022-09-30T06:00:42;7.68;;;4.80;;
22113;SDS011;11223;49.968;9.062;2022-09-30T06:03:09;7.18;;;5.35;;
22113;SDS011;11223;49.968;9.062;2022-09-30T06:05:34;7.07;;;4.47;;
22113;SDS011;11223;49.968;9.062;2022-09-30T06:08:01;6.28;;;4.10;;
22113;SDS011;11223;49.968;9.062;2022-09-30T06:10:27;8.93;;;6.00;;
22113;SDS011;11223;49.968;9.062;2022-09-30T06:12:53;6.10;;;4.90;;
22113;SDS011;11223;49.968;9.062;2022-09-30T06:15:18;8.73;;;5.20;;
22113;SDS011;11223;49.968;9.062;2022-09-30T06:17:44;8.13;;;5.03;;
22113;SDS011;11223;49.968;9.062;2022-09-30T06:20:15;10.57;;;6.40;;
22113;SDS011;11223;49.968;9.062;2022-09-30T06:22:41;10.10;;;5.00;;
22113;SDS011;11223;49.968;9.062;2022-09-30T06:25:07;8.02;;;5.63;;
22113;SDS011;11223;49.968;9.062;2022-09-30T06:27:33;5.80;;;5.20;;
22113;SDS011;11223;49.968;9.062;2022-09-30T06:29:58;11.90;;;7.13;;
22113;SDS011;11223;49.968;9.062;2022-09-30T06:32:24;10.33;;;7.37;;
22113;SDS011;11223;49.968;9.062;2022-09-30T06:34:50;9.83;;;8.20;;
22113;SDS011;11223;49.968;9.062;2022-09-30T06:37:16;8.38;;;6.35;;
22113;SDS011;11223;49.968;9.062;2022-09-30T06:39:42;11.57;;;8.07;;
22113;SDS011;11223;49.968;9.062;2022-09-30T06:42:08;11.68;;;7.57;;
22113;SDS011;11223;49.968;9.062;2022-09-30T06:44:35;16.13;;;9.68;;
22113;SDS011;11223;49.968;9.062;2022-09-30T06:47:01;14.47;;;10.33;;
22113;SDS011;11223;49.968;9.062;2022-09-30T06:49:26;14.77;;;11.00;;
22113;SDS011;11223;49.968;9.062;2022-09-30T06:51:52;13.20;;;9.83;;
22113;SDS011;11223;49.968;9.062;2022-09-30T06:54:18;18.40;;;11.43;;
22113;SDS011;11223;49.968;9.062;2022-09-30T06:56:45;13.60;;;10.00;;
22113;SDS011;11223;49.968;9.062;2022-09-30T06:59:11;13.55;;;10.73;;
22113;SDS011;11223;49.968;9.062;2022-09-30T07:01:40;15.32;;;9.77;;
22113;SDS011;11223;49.968;9.062;2022-09-30T07:04:08;16.50;;;10.38;;
22113;SDS011;11223;49.968;9.062;2022-09-30T07:06:35;18.90;;;11.30;;
22113;SDS011;11223;49.968;9.062;2022-09-30T07:09:02;24.10;;;10.60;;
22113;SDS011;11223;49.968;9.062;2022-09-30T07:11:29;13.30;;;9.00;;
22113;SDS011;11223;49.968;9.062;2022-09-30T07:13:54;18.23;;;9.70;;
22113;SDS011;11223;49.968;9.062;2022-09-30T07:16:21;11.55;;;8.90;;
22113;SDS011;11223;49.968;9.062;2022-09-30T07:18:49;15.25;;;9.35;;
22113;SDS011;11223;49.968;9.062;2022-09-30T07:21:15;11.67;;;8.30;;
22113;SDS011;11223;49.968;9.062;2022-09-30T07:23:41;11.52;;;7.75;;
22113;SDS011;11223;49.968;9.062;2022-09-30T07:26:12;10.70;;;8.07;;
22113;SDS011;11223;49.968;9.062;2022-09-30T07:28:42;10.48;;;7.32;;
22113;SDS011;11223;49.968;9.062;2022-09-30T07:31:10;9.82;;;6.57;;
22113;SDS011;11223;49.968;9.062;2022-09-30T07:33:46;9.68;;;7.65;;
22113;SDS011;11223;49.968;9.062;2022-09-30T07:36:15;9.43;;;7.65;;
22113;SDS011;11223;49.968;9.062;2022-09-30T07:38:43;7.97;;;7.20;;
22113;SDS011;11223;49.968;9.062;2022-09-30T07:41:13;10.02;;;7.95;;
22113;SDS011;11223;49.968;9.062;2022-09-30T07:43:44;8.93;;;6.72;;
22113;SDS011;11223;49.968;9.062;2022-09-30T07:46:18;9.02;;;6.68;;
22113;SDS011;11223;49.968;9.062;2022-09-30T07:48:48;8.73;;;6.55;;
22113;SDS011;11223;49.968;9.062;2022-09-30T07:53:44;9.02;;;7.90;;
22113;SDS011;11223;49.968;9.062;2022-09-30T07:56:12;9.45;;;7.97;;
22113;SDS011;11223;49.968;9.062;2022-09-30T07:58:38;9.25;;;7.72;;
22113;SDS011;11223;49.968;9.062;2022-09-30T08:01:04;9.90;;;8.43;;
22113;SDS011;11223;49.968;9.062;2022-09-30T08:03:34;10.18;;;7.80;;
22113;SDS011;11223;49.968;9.062;2022-09-30T08:06:10;8.40;;;7.30;;
22113;SDS011;11223;49.968;9.062;2022-09-30T08:08:37;9.30;;;8.40;;
22113;SDS011;11223;49.968;9.062;2022-09-30T08:11:03;11.03;;;10.00;;
22113;SDS011;11223;49.968;9.062;2022-09-30T08:13:30;10.30;;;9.38;;
22113;SDS011;11223;49.968;9.062;2022-09-30T08:15:55;9.80;;;8.87;;
22113;SDS011;11223;49.968;9.062;2022-09-30T08:18:21;8.17;;;7.47;;
22113;SDS011;11223;49.968;9.062;2022-09-30T08:20:47;7.45;;;6.85;;
22113;SDS011;11223;49.968;9.062;2022-09-30T08:23:13;9.20;;;8.35;;
22113;SDS011;11223;49.968;9.062;2022-09-30T08:25:39;7.73;;;6.53;;
22113;SDS011;11223;49.968;9.062;2022-09-30T08:28:04;7.43;;;6.77;;
22113;SDS011;11223;49.968;9.062;2022-09-30T08:30:30;7.17;;;6.60;;
22113;SDS011;11223;49.968;9.062;2022-09-30T08:32:59;7.15;;;6.53;;
22113;SDS011;11223;49.968;9.062;2022-09-30T08:35:24;7.73;;;7.03;;
22113;SDS011;11223;49.968;9.062;2022-09-30T08:37:50;7.13;;;6.50;;
22113;SDS011;11223;49.968;9.062;2022-09-30T08:40:17;7.97;;;7.17;;
22113;SDS011;11223;49.968;9.062;2022-09-30T08:43:39;7.32;;;6.38;;
22113;SDS011;11223;49.968;9.062;2022-09-30T08:48:58;6.18;;;5.65;;
22113;SDS011;11223;49.968;9.062;2022-09-30T08:51:48;6.57;;;6.05;;
22113;SDS011;11223;49.968;9.062;2022-09-30T08:54:16;7.20;;;6.53;;
22113;SDS011;11223;49.968;9.062;2022-09-30T08:56:45;7.55;;;6.85;;
22113;SDS011;11223;49.968;9.062;2022-09-30T09:02:00;5.65;;;5.15;;
22113;SDS011;11223;49.968;9.062;2022-09-30T09:04:48;5.85;;;5.35;;
22113;SDS011;11223;49.968;9.062;2022-09-30T09:17:34;6.32;;;5.82;;
22113;SDS011;11223;49.968;9.062;2022-09-30T09:22:38;7.68;;;6.88;;
22113;SDS011;11223;49.968;9.062;2022-09-30T09:25:05;8.98;;;6.85;;
22113;SDS011;11223;49.968;9.062;2022-09-30T09:27:44;6.25;;;5.75;;
22113;SDS011;11223;49.968;9.062;2022-09-30T09:30:18;6.07;;;5.47;;
22113;SDS011;11223;49.968;9.062;2022-09-30T09:32:49;5.50;;;5.10;;
22113;SDS011;11223;49.968;9.062;2022-09-30T09:38:16;7.82;;;5.75;;
22113;SDS011;11223;49.968;9.062;2022-09-30T09:46:48;4.90;;;4.45;;
22113;SDS011;11223;49.968;9.062;2022-09-30T09:49:31;4.68;;;4.10;;
22113;SDS011;11223;49.968;9.062;2022-09-30T09:54:39;4.35;;;4.05;;
22113;SDS011;11223;49.968;9.062;2022-09-30T09:57:12;3.90;;;3.50;;
22113;SDS011;11223;49.968;9.062;2022-09-30T10:00:03;4.47;;;3.20;;
22113;SDS011;11223;49.968;9.062;2022-09-30T10:02:59;3.15;;;2.85;;
22113;SDS011;11223;49.968;9.062;2022-09-30T10:05:35;4.07;;;3.30;;
22113;SDS011;11223;49.968;9.062;2022-09-30T10:08:08;2.95;;;2.75;;
22113;SDS011;11223;49.968;9.062;2022-09-30T10:15:42;3.17;;;2.87;;
22113;SDS011;11223;49.968;9.062;2022-09-30T10:18:12;4.70;;;2.83;;
22113;SDS011;11223;49.968;9.062;2022-09-30T10:20:48;2.75;;;1.95;;
22113;SDS011;11223;49.968;9.062;2022-09-30T10:23:21;2.85;;;2.65;;
22113;SDS011;11223;49.968;9.062;2022-09-30T10:26:35;3.45;;;3.15;;
22113;SDS011;11223;49.968;9.062;2022-09-30T10:28:50;2.65;;;2.45;;
22113;SDS011;11223;49.968;9.062;2022-09-30T10:34:26;2.30;;;1.95;;
22113;SDS011;11223;49.968;9.062;2022-09-30T10:36:55;3.05;;;2.75;;
22113;SDS011;11223;49.968;9.062;2022-09-30T10:44:50;3.13;;;2.80;;
22113;SDS011;11223;49.968;9.062;2022-09-30T10:47:22;3.30;;;3.10;;
22113;SDS011;11223;49.968;9.062;2022-09-30T10:49:52;3.53;;;2.53;;
22113;SDS011;11223;49.968;9.062;2022-09-30T10:52:25;3.00;;;2.70;;
22113;SDS011;11223;49.968;9.062;2022-09-30T10:54:53;4.53;;;2.30;;
22113;SDS011;11223;49.968;9.062;2022-09-30T10:57:28;1.75;;;1.55;;
22113;SDS011;11223;49.968;9.062;2022-09-30T11:02:44;2.00;;;1.80;;
22113;SDS011;11223;49.968;9.062;2022-09-30T11:06:01;1.85;;;1.75;;
22113;SDS011;11223;49.968;9.062;2022-09-30T11:10:44;2.20;;;1.92;;
22113;SDS011;11223;49.968;9.062;2022-09-30T11:13:39;1.70;;;1.50;;
22113;SDS011;11223;49.968;9.062;2022-09-30T11:16:12;2.35;;;1.40;;
22113;SDS011;11223;49.968;9.062;2022-09-30T11:21:52;1.75;;;1.60;;
22113;SDS011;11223;49.968;9.062;2022-09-30T11:24:31;3.08;;;1.90;;
22113;SDS011;11223;49.968;9.062;2022-09-30T11:40:28;4.63;;;2.45;;
22113;SDS011;11223;49.968;9.062;2022-09-30T11:56:49;2.50;;;1.70;;
22113;SDS011;11223;49.968;9.062;2022-09-30T11:59:26;2.67;;;2.40;;
22113;SDS011;11223;49.968;9.062;2022-09-30T12:01:59;4.13;;;2.40;;
22113;SDS011;11223;49.968;9.062;2022-09-30T12:04:31;1.75;;;1.65;;
22113;SDS011;11223;49.968;9.062;2022-09-30T12:07:05;1.75;;;1.55;;
22113;SDS011;11223;49.968;9.062;2022-09-30T12:09:42;3.72;;;1.70;;
22113;SDS011;11223;49.968;9.062;2022-09-30T12:12:12;2.00;;;1.73;;
22113;SDS011;11223;49.968;9.062;2022-09-30T12:17:19;2.90;;;1.67;;
22113;SDS011;11223;49.968;9.062;2022-09-30T12:19:50;1.90;;;1.70;;
22113;SDS011;11223;49.968;9.062;2022-09-30T12:22:29;1.40;;;1.30;;
22113;SDS011;11223;49.968;9.062;2022-09-30T12:25:14;1.73;;;1.60;;
22113;SDS011;11223;49.968;9.062;2022-09-30T12:30:49;2.00;;;1.85;;
22113;SDS011;11223;49.968;9.062;2022-09-30T12:33:42;1.63;;;1.52;;
22113;SDS011;11223;49.968;9.062;2022-09-30T12:42:18;4.38;;;1.42;;
22113;SDS011;11223;49.968;9.062;2022-09-30T12:47:55;2.90;;;2.10;;
22113;SDS011;11223;49.968;9.062;2022-09-30T12:50:25;2.47;;;2.28;;
22113;SDS011;11223;49.968;9.062;2022-09-30T12:52:53;2.67;;;2.40;;
22113;SDS011;11223;49.968;9.062;2022-09-30T12:55:23;5.90;;;4.20;;
22113;SDS011;11223;49.968;9.062;2022-09-30T12:58:02;3.20;;;2.90;;
22113;SDS011;11223;49.968;9.062;2022-09-30T13:00:30;6.55;;;3.17;;
22113;SDS011;11223;49.968;9.062;2022-09-30T13:03:06;3.65;;;2.50;;
22113;SDS011;11223;49.968;9.062;2022-09-30T13:10:31;1.60;;;1.50;;
22113;SDS011;11223;49.968;9.062;2022-09-30T13:16:01;2.40;;;1.80;;
22113;SDS011;11223;49.968;9.062;2022-09-30T13:23:36;2.33;;;1.77;;
22113;SDS011;11223;49.968;9.062;2022-09-30T13:28:46;2.90;;;1.70;;
22113;SDS011;11223;49.968;9.062;2022-09-30T13:31:19;1.60;;;1.50;;
22113;SDS011;11223;49.968;9.062;2022-09-30T13:39:06;4.05;;;1.67;;
22113;SDS011;11223;49.968;9.062;2022-09-30T13:41:33;3.20;;;1.50;;
22113;SDS011;11223;49.968;9.062;2022-09-30T13:44:37;2.10;;;1.45;;
22113;SDS011;11223;49.968;9.062;2022-09-30T13:46:58;1.48;;;1.35;;
22113;SDS011;11223;49.968;9.062;2022-09-30T13:49:45;2.28;;;2.00;;
22113;SDS011;11223;49.968;9.062;2022-09-30T13:52:23;2.72;;;2.00;;
22113;SDS011;11223;49.968;9.062;2022-09-30T13:54:52;2.22;;;1.52;;
22113;SDS011;11223;49.968;9.062;2022-09-30T13:57:42;1.77;;;1.67;;
22113;SDS011;11223;49.968;9.062;2022-09-30T14:01:02;3.45;;;1.73;;
22113;SDS011;11223;49.968;9.062;2022-09-30T14:06:27;2.10;;;1.90;;
22113;SDS011;11223;49.968;9.062;2022-09-30T14:09:22;1.58;;;1.30;;
22113;SDS011;11223;49.968;9.062;2022-09-30T14:15:03;1.90;;;1.70;;
22113;SDS011;11223;49.968;9.062;2022-09-30T14:17:56;1.70;;;1.45;;
22113;SDS011;11223;49.968;9.062;2022-09-30T14:20:52;2.20;;;2.00;;
22113;SDS011;11223;49.968;9.062;2022-09-30T14:23:42;2.20;;;2.00;;
22113;SDS011;11223;49.968;9.062;2022-09-30T14:26:14;1.70;;;1.60;;
22113;SDS011;11223;49.968;9.062;2022-09-30T14:31:57;1.67;;;1.58;;
22113;SDS011;11223;49.968;9.062;2022-09-30T14:34:24;2.30;;;1.80;;
22113;SDS011;11223;49.968;9.062;2022-09-30T14:36:53;1.23;;;1.13;;
22113;SDS011;11223;49.968;9.062;2022-09-30T14:39:21;1.67;;;1.30;;
22113;SDS011;11223;49.968;9.062;2022-09-30T14:41:56;1.65;;;1.55;;
22113;SDS011;11223;49.968;9.062;2022-09-30T14:44:25;1.88;;;1.77;;
22113;SDS011;11223;49.968;9.062;2022-09-30T14:46:57;1.67;;;1.55;;
22113;SDS011;11223;49.968;9.062;2022-09-30T14:49:26;2.10;;;1.80;;
22113;SDS011;11223;49.968;9.062;2022-09-30T14:51:58;1.50;;;1.40;;
22113;SDS011;11223;49.968;9.062;2022-09-30T14:54:26;2.30;;;2.08;;
22113;SDS011;11223;49.968;9.062;2022-09-30T14:56:53;2.08;;;1.88;;
22113;SDS011;11223;49.968;9.062;2022-09-30T14:59:21;1.77;;;1.50;;
22113;SDS011;11223;49.968;9.062;2022-09-30T15:01:51;2.28;;;1.88;;
22113;SDS011;11223;49.968;9.062;2022-09-30T15:04:44;2.05;;;1.85;;
22113;SDS011;11223;49.968;9.062;2022-09-30T15:07:12;1.75;;;1.63;;
22113;SDS011;11223;49.968;9.062;2022-09-30T15:09:42;1.60;;;1.50;;
22113;SDS011;11223;49.968;9.062;2022-09-30T15:14:45;1.95;;;1.75;;
22113;SDS011;11223;49.968;9.062;2022-09-30T15:17:16;2.00;;;1.80;;
22113;SDS011;11223;49.968;9.062;2022-09-30T15:19:43;1.77;;;1.58;;
22113;SDS011;11223;49.968;9.062;2022-09-30T15:22:09;2.10;;;2.00;;
22113;SDS011;11223;49.968;9.062;2022-09-30T15:24:37;2.75;;;1.92;;
22113;SDS011;11223;49.968;9.062;2022-09-30T15:27:04;2.20;;;1.63;;
22113;SDS011;11223;49.968;9.062;2022-09-30T15:29:34;2.45;;;2.25;;
22113;SDS011;11223;49.968;9.062;2022-09-30T15:32:02;2.65;;;2.45;;
22113;SDS011;11223;49.968;9.062;2022-09-30T15:34:45;2.20;;;2.00;;
22113;SDS011;11223;49.968;9.062;2022-09-30T15:37:18;2.50;;;2.30;;
22113;SDS011;11223;49.968;9.062;2022-09-30T15:39:48;3.03;;;2.53;;
22113;SDS011;11223;49.968;9.062;2022-09-30T15:42:34;2.88;;;1.67;;
22113;SDS011;11223;49.968;9.062;2022-09-30T15:45:03;2.20;;;2.00;;
22113;SDS011;11223;49.968;9.062;2022-09-30T15:47:54;3.70;;;1.90;;
22113;SDS011;11223;49.968;9.062;2022-09-30T15:50:36;2.25;;;2.05;;
22113;SDS011;11223;49.968;9.062;2022-09-30T15:55:43;2.22;;;2.13;;
22113;SDS011;11223;49.968;9.062;2022-09-30T15:58:28;1.60;;;1.50;;
22113;SDS011;11223;49.968;9.062;2022-09-30T16:03:48;2.30;;;2.10;;
22113;SDS011;11223;49.968;9.062;2022-09-30T16:06:20;2.75;;;1.67;;
22113;SDS011;11223;49.968;9.062;2022-09-30T16:08:51;2.78;;;2.38;;
22113;SDS011;11223;49.968;9.062;2022-09-30T16:11:20;2.25;;;1.85;;
22113;SDS011;11223;49.968;9.062;2022-09-30T16:13:55;4.95;;;2.78;;
22113;SDS011;11223;49.968;9.062;2022-09-30T16:16:24;2.00;;;1.80;;
22113;SDS011;11223;49.968;9.062;2022-09-30T16:18:53;2.60;;;2.40;;
22113;SDS011;11223;49.968;9.062;2022-09-30T16:26:48;2.80;;;2.22;;
22113;SDS011;11223;49.968;9.062;2022-09-30T16:29:15;2.40;;;2.20;;
22113;SDS011;11223;49.968;9.062;2022-09-30T16:31:42;4.60;;;2.15;;
22113;SDS011;11223;49.968;9.062;2022-09-30T16:34:17;2.85;;;2.55;;
22113;SDS011;11223;49.968;9.062;2022-09-30T16:36:43;2.60;;;2.28;;
22113;SDS011;11223;49.968;9.062;2022-09-30T16:39:10;3.10;;;2.57;;
22113;SDS011;11223;49.968;9.062;2022-09-30T16:41:38;2.28;;;2.08;;
22113;SDS011;11223;49.968;9.062;2022-09-30T16:44:04;3.45;;;2.13;;
22113;SDS011;11223;49.968;9.062;2022-09-30T16:46:31;3.03;;;2.15;;
22113;SDS011;11223;49.968;9.062;2022-09-30T16:48:57;1.88;;;1.67;;
22113;SDS011;11223;49.968;9.062;2022-09-30T16:51:23;2.45;;;2.25;;
22113;SDS011;11223;49.968;9.062;2022-09-30T16:53:49;2.17;;;2.07;;
22113;SDS011;11223;49.968;9.062;2022-09-30T16:56:15;2.37;;;2.13;;
22113;SDS011;11223;49.968;9.062;2022-09-30T16:58:45;3.00;;;2.20;;
22113;SDS011;11223;49.968;9.062;2022-09-30T17:01:18;3.03;;;2.40;;
22113;SDS011;11223;49.968;9.062;2022-09-30T17:03:48;2.17;;;1.98;;
22113;SDS011;11223;49.968;9.062;2022-09-30T17:06:15;4.32;;;2.40;;
22113;SDS011;11223;49.968;9.062;2022-09-30T17:08:43;2.15;;;1.95;;
22113;SDS011;11223;49.968;9.062;2022-09-30T17:11:09;3.20;;;2.10;;
22113;SDS011;11223;49.968;9.062;2022-09-30T17:13:35;2.95;;;2.00;;
22113;SDS011;11223;49.968;9.062;2022-09-30T17:16:01;3.28;;;2.47;;
22113;SDS011;11223;49.968;9.062;2022-09-30T17:18:28;2.78;;;2.58;;
22113;SDS011;11223;49.968;9.062;2022-09-30T17:20:54;2.40;;;2.13;;
22113;SDS011;11223;49.968;9.062;2022-09-30T17:23:21;2.67;;;2.15;;
22113;SDS011;11223;49.968;9.062;2022-09-30T17:25:48;2.47;;;2.33;;
22113;SDS011;11223;49.968;9.062;2022-09-30T17:28:13;2.33;;;2.13;;
22113;SDS011;11223;49.968;9.062;2022-09-30T17:30:40;2.10;;;2.00;;
22113;SDS011;11223;49.968;9.062;2022-09-30T17:33:08;4.05;;;2.25;;
22113;SDS011;11223;49.968;9.062;2022-09-30T17:35:37;2.80;;;2.33;;
22113;SDS011;11223;49.968;9.062;2022-09-30T17:38:05;2.40;;;2.20;;
22113;SDS011;11223;49.968;9.062;2022-09-30T17:40:34;2.70;;;2.50;;
22113;SDS011;11223;49.968;9.062;2022-09-30T17:43:19;3.83;;;2.58;;
22113;SDS011;11223;49.968;9.062;2022-09-30T17:45:45;2.53;;;2.33;;
22113;SDS011;11223;49.968;9.062;2022-09-30T17:48:12;2.30;;;2.10;;
22113;SDS011;11223;49.968;9.062;2022-09-30T17:50:41;3.22;;;2.95;;
22113;SDS011;11223;49.968;9.062;2022-09-30T17:53:08;3.47;;;2.80;;
22113;SDS011;11223;49.968;9.062;2022-09-30T17:55:37;3.05;;;2.75;;
22113;SDS011;11223;49.968;9.062;2022-09-30T17:58:03;3.08;;;2.60;;
22113;SDS011;11223;49.968;9.062;2022-09-30T18:00:31;3.45;;;2.67;;
22113;SDS011;11223;49.968;9.062;2022-09-30T18:02:57;3.00;;;2.70;;
22113;SDS011;11223;49.968;9.062;2022-09-30T18:05:23;3.42;;;3.13;;
22113;SDS011;11223;49.968;9.062;2022-09-30T18:07:51;3.15;;;2.85;;
22113;SDS011;11223;49.968;9.062;2022-09-30T18:10:17;5.00;;;2.73;;
22113;SDS011;11223;49.968;9.062;2022-09-30T18:12:42;6.53;;;3.00;;
22113;SDS011;11223;49.968;9.062;2022-09-30T18:15:08;4.40;;;2.60;;
22113;SDS011;11223;49.968;9.062;2022-09-30T18:17:34;3.22;;;2.95;;
22113;SDS011;11223;49.968;9.062;2022-09-30T18:20:00;4.10;;;3.00;;
22113;SDS011;11223;49.968;9.062;2022-09-30T18:22:25;3.87;;;3.57;;
22113;SDS011;11223;49.968;9.062;2022-09-30T18:24:51;3.20;;;2.90;;
22113;SDS011;11223;49.968;9.062;2022-09-30T18:27:35;3.47;;;3.00;;
22113;SDS011;11223;49.968;9.062;2022-09-30T18:30:02;3.60;;;3.30;;
22113;SDS011;11223;49.968;9.062;2022-09-30T18:32:29;3.35;;;3.05;;